createdAt,value
2018-08-21T00:00:22.112Z,8.77
2018-08-21T00:02:51.221Z,9.00
2018-08-21T00:05:20.286Z,8.70
2018-08-21T00:07:49.345Z,9.93
2018-08-21T00:12:54.154Z,10.15
2018-08-21T00:15:23.206Z,10.15
2018-08-21T00:17:52.255Z,9.80
2018-08-21T00:20:21.310Z,9.67
2018-08-21T00:22:50.365Z,10.10
2018-08-21T00:25:19.421Z,9.40
2018-08-21T00:30:24.306Z,10.85
2018-08-21T00:32:53.409Z,10.50
2018-08-21T00:35:22.454Z,11.23
2018-08-21T00:37:51.508Z,9.90
2018-08-21T00:40:20.553Z,9.50
2018-08-21T00:42:49.630Z,10.02
2018-08-21T00:47:54.421Z,10.90
2018-08-21T00:50:24.388Z,9.95
2018-08-21T00:52:53.445Z,9.70
2018-08-21T00:57:59.291Z,11.18
2018-08-21T01:00:28.371Z,10.20
2018-08-21T01:02:57.446Z,9.90
2018-08-21T01:05:26.517Z,13.23
2018-08-21T01:10:31.383Z,10.38
2018-08-21T01:13:00.432Z,10.48
2018-08-21T01:15:31.564Z,11.25
2018-08-21T01:18:00.609Z,9.60
2018-08-21T01:23:05.454Z,10.03
2018-08-21T01:25:34.564Z,10.50
2018-08-21T01:28:03.642Z,11.10
2018-08-21T01:30:33.720Z,10.57
2018-08-21T01:33:02.779Z,10.10
2018-08-21T01:35:31.839Z,11.30
2018-08-21T01:38:00.905Z,11.40
2018-08-21T01:40:29.965Z,10.13
2018-08-21T01:42:59.137Z,10.70
2018-08-21T01:45:28.185Z,10.10
2018-08-21T01:48:02.077Z,10.90
2018-08-21T01:50:36.333Z,10.73
2018-08-21T01:55:41.649Z,11.00
2018-08-21T01:58:10.700Z,11.30
2018-08-21T02:00:39.745Z,9.20
2018-08-21T02:03:09.764Z,9.83
2018-08-21T02:05:39.738Z,10.37
2018-08-21T02:08:08.774Z,9.40
2018-08-21T02:14:09.295Z,11.35
2018-08-21T02:19:14.065Z,10.93
2018-08-21T02:21:44.077Z,9.77
2018-08-21T02:24:13.130Z,10.27
2018-08-21T02:26:42.189Z,10.17
2018-08-21T02:29:11.263Z,11.50
2018-08-21T02:31:40.305Z,9.90
2018-08-21T02:34:09.397Z,10.47
2018-08-21T02:41:51.026Z,11.40
2018-08-21T02:44:20.096Z,11.30
2018-08-21T02:46:50.098Z,11.20
2018-08-21T02:51:54.885Z,10.97
2018-08-21T02:54:23.932Z,10.43
2018-08-21T02:56:52.983Z,10.10
2018-08-21T03:01:57.850Z,10.80
2018-08-21T03:04:26.905Z,11.10
2018-08-21T03:09:31.675Z,10.80
2018-08-21T03:14:36.437Z,12.27
2018-08-21T03:17:05.501Z,11.30
2018-08-21T03:19:34.605Z,9.80
2018-08-21T03:22:03.657Z,10.23
2018-08-21T03:24:32.714Z,10.63
2018-08-21T03:27:01.781Z,11.40
2018-08-21T03:29:31.824Z,11.10
2018-08-21T03:34:36.601Z,12.03
2018-08-21T03:39:41.842Z,10.77
2018-08-21T03:42:12.890Z,9.90
2018-08-21T03:44:43.930Z,10.23
2018-08-21T03:47:12.992Z,9.50
2018-08-21T03:49:42.063Z,11.40
2018-08-21T03:52:11.118Z,11.20
2018-08-21T03:57:15.891Z,11.70
2018-08-21T03:59:44.968Z,12.20
2018-08-21T04:02:14.929Z,10.87
2018-08-21T04:04:44.018Z,10.40
2018-08-21T04:09:48.862Z,12.20
2018-08-21T04:14:53.734Z,12.20
2018-08-21T04:17:22.788Z,10.60
2018-08-21T04:22:27.558Z,11.87
2018-08-21T04:27:32.405Z,11.40
2018-08-21T04:30:01.485Z,12.00
2018-08-21T04:32:30.623Z,11.80
2018-08-21T04:34:59.639Z,24.63
2018-08-21T04:37:28.693Z,17.07
2018-08-21T04:42:33.567Z,14.83
2018-08-21T04:45:03.597Z,13.90
2018-08-21T04:47:32.659Z,14.23
2018-08-21T04:50:01.719Z,10.27
2018-08-21T04:52:30.808Z,13.07
2018-08-21T04:55:00.770Z,12.80
2018-08-21T04:57:30.876Z,11.00
2018-08-21T04:59:59.913Z,13.37
2018-08-21T05:02:28.987Z,12.17
2018-08-21T05:07:33.762Z,12.97
2018-08-21T05:15:14.365Z,12.87
2018-08-21T05:20:19.129Z,13.82
2018-08-21T05:22:48.181Z,16.92
2018-08-21T05:27:53.025Z,18.05
2018-08-21T05:30:22.114Z,14.07
2018-08-21T05:32:51.199Z,14.33
2018-08-21T05:35:20.290Z,19.87
2018-08-21T05:37:49.347Z,14.90
2018-08-21T05:40:18.415Z,19.70
2018-08-21T05:42:47.605Z,15.20
2018-08-21T05:45:17.523Z,18.30
2018-08-21T05:47:46.796Z,16.33
2018-08-21T05:50:16.801Z,20.23
2018-08-21T05:55:21.747Z,14.52
2018-08-21T05:57:52.341Z,17.12
2018-08-21T06:00:34.518Z,14.30
2018-08-21T06:03:16.391Z,12.13
2018-08-21T06:08:32.446Z,16.10
2018-08-21T06:11:01.879Z,11.27
2018-08-21T06:13:31.342Z,12.10
2018-08-21T06:16:01.297Z,13.57
2018-08-21T06:18:30.622Z,14.43
2018-08-21T06:21:00.054Z,12.90
2018-08-21T06:23:30.335Z,11.93
2018-08-21T06:26:00.199Z,13.50
2018-08-21T06:31:05.084Z,12.85
2018-08-21T06:33:34.259Z,11.57
2018-08-21T06:36:03.579Z,13.93
2018-08-21T06:38:32.621Z,13.57
2018-08-21T06:41:01.672Z,10.83
2018-08-21T06:43:30.767Z,13.23
2018-08-21T06:45:59.822Z,11.37
2018-08-21T06:51:04.683Z,13.27
2018-08-21T06:53:34.814Z,12.90
2018-08-21T06:56:03.858Z,11.33
2018-08-21T07:01:08.652Z,12.80
2018-08-21T07:03:38.761Z,13.90
2018-08-21T07:06:07.824Z,12.63
2018-08-21T07:08:36.879Z,11.93
2018-08-21T07:11:05.963Z,12.57
2018-08-21T07:13:35.027Z,12.77
2018-08-21T07:18:39.876Z,14.17
2018-08-21T07:23:44.730Z,14.40
2018-08-21T07:28:49.537Z,12.48
2018-08-21T07:31:18.605Z,15.30
2018-08-21T07:33:47.694Z,13.20
2018-08-21T07:36:16.721Z,13.27
2018-08-21T07:38:45.783Z,12.77
2018-08-21T07:43:52.083Z,11.70
2018-08-21T07:46:21.344Z,13.53
2018-08-21T07:48:51.307Z,12.73
2018-08-21T07:51:20.357Z,10.60
2018-08-21T07:53:49.402Z,10.13
2018-08-21T07:56:18.454Z,11.30
2018-08-21T07:58:49.734Z,9.97
2018-08-21T08:01:18.802Z,11.20
2018-08-21T08:03:47.858Z,10.90
2018-08-21T08:11:29.486Z,11.52
2018-08-21T08:14:00.411Z,11.52
2018-08-21T08:16:30.353Z,10.47
2018-08-21T08:18:59.438Z,10.13
2018-08-21T08:21:28.459Z,11.63
2018-08-21T08:23:58.447Z,10.73
2018-08-21T08:29:03.371Z,10.40
2018-08-21T08:31:32.407Z,11.18
2018-08-21T08:36:37.305Z,10.10
2018-08-21T08:39:06.794Z,10.00
2018-08-21T08:41:35.919Z,11.43
2018-08-21T08:44:04.956Z,10.23
2018-08-21T08:46:34.158Z,10.20
2018-08-21T08:49:03.218Z,8.73
2018-08-21T08:51:33.246Z,10.30
2018-08-21T08:56:38.071Z,12.30
2018-08-21T08:59:07.205Z,12.47
2018-08-21T09:01:36.257Z,9.43
2018-08-21T09:04:06.271Z,10.82
2018-08-21T09:06:35.324Z,12.87
2018-08-21T09:09:04.393Z,10.50
2018-08-21T09:11:33.450Z,10.13
2018-08-21T09:14:03.494Z,10.27
2018-08-21T09:16:33.537Z,8.83
2018-08-21T09:21:38.382Z,8.95
2018-08-21T09:26:43.369Z,8.70
2018-08-21T09:29:12.577Z,8.67
2018-08-21T09:31:41.660Z,8.48
2018-08-21T09:36:46.592Z,9.30
2018-08-21T09:39:15.662Z,8.55
2018-08-21T09:41:44.789Z,8.20
2018-08-21T09:46:49.635Z,8.43
2018-08-21T09:49:18.702Z,8.30
2018-08-21T09:51:48.794Z,7.93
2018-08-21T09:54:17.786Z,10.40
2018-08-21T09:56:46.835Z,7.97
2018-08-21T09:59:16.542Z,8.48
2018-08-21T10:01:45.577Z,8.37
2018-08-21T10:04:14.629Z,9.53
2018-08-21T10:06:44.738Z,8.10
2018-08-21T10:09:15.609Z,8.53
2018-08-21T10:11:45.608Z,7.63
2018-08-21T10:14:27.132Z,8.33
2018-08-21T10:16:56.633Z,7.17
2018-08-21T10:19:25.729Z,8.27
2018-08-21T10:21:54.758Z,6.77
2018-08-21T10:24:23.868Z,7.77
2018-08-21T10:26:53.845Z,7.60
2018-08-21T10:29:23.027Z,6.93
2018-08-21T10:31:52.041Z,7.50
2018-08-21T10:34:21.197Z,6.83
2018-08-21T10:36:50.250Z,6.80
2018-08-21T10:39:19.281Z,9.73
2018-08-21T10:41:51.503Z,7.30
2018-08-21T10:44:20.541Z,8.03
2018-08-21T10:46:50.644Z,8.07
2018-08-21T10:49:19.689Z,7.53
2018-08-21T10:51:48.811Z,8.40
2018-08-21T10:56:53.534Z,10.68
2018-08-21T10:59:22.579Z,8.00
2018-08-21T11:04:27.351Z,6.93
2018-08-21T11:06:56.430Z,7.10
2018-08-21T11:09:26.412Z,10.17
2018-08-21T11:11:55.448Z,7.53
2018-08-21T11:14:24.507Z,7.53
2018-08-21T11:16:53.562Z,7.53
2018-08-21T11:19:22.714Z,7.10
2018-08-21T11:21:52.751Z,7.03
2018-08-21T11:24:22.410Z,7.30
2018-08-21T11:26:51.477Z,8.57
2018-08-21T11:29:20.880Z,7.80
2018-08-21T11:31:49.990Z,7.10
2018-08-21T11:36:55.105Z,7.93
2018-08-21T11:39:24.163Z,6.95
2018-08-21T11:41:53.231Z,7.40
2018-08-21T11:44:22.294Z,6.87
2018-08-21T11:46:51.349Z,6.75
2018-08-21T11:49:20.405Z,7.80
2018-08-21T11:51:49.473Z,7.32
2018-08-21T11:54:18.520Z,6.68
2018-08-21T11:56:48.487Z,7.62
2018-08-21T11:59:17.536Z,9.80
2018-08-21T12:01:46.591Z,6.93
2018-08-21T12:04:16.758Z,6.12
2018-08-21T12:06:45.829Z,6.87
2018-08-21T12:09:14.882Z,7.90
2018-08-21T12:11:44.003Z,7.37
2018-08-21T12:14:13.101Z,16.80
2018-08-21T12:16:42.168Z,6.87
2018-08-21T12:19:11.222Z,6.70
2018-08-21T12:21:40.281Z,6.90
2018-08-21T12:24:09.355Z,7.70
2018-08-21T12:26:38.497Z,7.07
2018-08-21T12:31:43.238Z,7.40
2018-08-21T12:34:12.359Z,7.15
2018-08-21T12:36:41.347Z,7.43
2018-08-21T12:39:10.653Z,7.50
2018-08-21T12:41:39.703Z,6.82
2018-08-21T12:44:08.755Z,7.57
2018-08-21T12:46:41.269Z,7.53
2018-08-21T12:49:10.343Z,12.23
2018-08-21T12:51:39.407Z,6.28
2018-08-21T12:54:08.479Z,6.80
2018-08-21T12:56:37.535Z,7.72
2018-08-21T12:59:06.660Z,7.80
2018-08-21T13:01:35.694Z,6.23
2018-08-21T13:06:40.551Z,9.57
2018-08-21T13:09:09.579Z,7.65
2018-08-21T13:11:39.718Z,6.60
2018-08-21T13:14:08.766Z,6.47
2018-08-21T13:19:13.529Z,7.18
2018-08-21T13:21:42.605Z,7.30
2018-08-21T13:24:11.719Z,6.93
2018-08-21T13:29:21.898Z,7.55
2018-08-21T13:42:17.397Z,7.10
2018-08-21T13:44:46.437Z,7.57
2018-08-21T13:47:16.499Z,7.97
2018-08-21T13:49:45.571Z,7.90
2018-08-21T13:52:14.631Z,6.90
2018-08-21T13:54:46.944Z,7.30
2018-08-21T13:57:16.974Z,7.47
2018-08-21T13:59:46.026Z,7.20
2018-08-21T14:02:15.090Z,7.73
2018-08-21T14:04:44.154Z,7.75
2018-08-21T14:07:13.212Z,7.67
2018-08-21T14:09:42.265Z,7.50
2018-08-21T14:12:11.337Z,7.28
2018-08-21T14:14:40.441Z,7.80
2018-08-21T14:17:09.472Z,8.07
2018-08-21T14:19:38.560Z,7.47
2018-08-21T14:22:07.813Z,7.53
2018-08-21T14:24:36.866Z,9.33
2018-08-21T14:27:05.916Z,6.70
2018-08-21T14:29:35.058Z,7.63
2018-08-21T14:32:05.078Z,7.03
2018-08-21T14:34:34.137Z,7.47
2018-08-21T14:37:03.191Z,7.40
2018-08-21T14:39:32.253Z,7.00
2018-08-21T14:42:01.324Z,7.60
2018-08-21T14:44:30.379Z,7.90
2018-08-21T14:47:00.397Z,7.00
2018-08-21T14:49:29.458Z,6.60
2018-08-21T14:51:58.682Z,7.63
2018-08-21T14:54:27.723Z,8.17
2018-08-21T14:56:56.824Z,7.80
2018-08-21T14:59:26.185Z,8.53
2018-08-21T15:01:56.218Z,7.53
2018-08-21T15:04:25.267Z,7.17
2018-08-21T15:06:54.325Z,7.67
2018-08-21T15:09:23.421Z,7.27
2018-08-21T15:11:52.476Z,7.37
2018-08-21T15:14:21.525Z,7.93
2018-08-21T15:16:50.602Z,7.30
2018-08-21T15:19:19.719Z,7.90
2018-08-21T15:21:50.783Z,7.23
2018-08-21T15:24:19.839Z,8.07
2018-08-21T15:26:49.150Z,7.87
2018-08-21T15:29:18.209Z,8.40
2018-08-21T15:31:47.276Z,7.80
2018-08-21T15:34:16.328Z,8.07
2018-08-21T15:36:45.385Z,7.50
2018-08-21T15:41:50.125Z,7.80
2018-08-21T15:44:19.227Z,7.25
2018-08-21T15:46:49.227Z,8.20
2018-08-21T15:49:18.317Z,7.53
2018-08-21T15:51:47.487Z,8.10
2018-08-21T15:54:16.626Z,7.47
2018-08-21T15:56:45.677Z,7.40
2018-08-21T15:59:15.625Z,8.13
2018-08-21T16:01:44.645Z,7.75
2018-08-21T16:04:13.878Z,7.55
2018-08-21T16:06:43.230Z,9.70
2018-08-21T16:09:12.331Z,7.13
2018-08-21T16:11:42.526Z,7.07
2018-08-21T16:14:12.486Z,7.20
2018-08-21T16:16:41.545Z,7.00
2018-08-21T16:19:10.705Z,7.60
2018-08-21T16:24:15.605Z,8.32
2018-08-21T16:26:44.670Z,9.53
2018-08-21T16:29:13.747Z,8.00
2018-08-21T16:31:43.088Z,7.53
2018-08-21T16:34:12.162Z,7.60
2018-08-21T16:36:41.208Z,7.63
2018-08-21T16:41:46.158Z,8.05
2018-08-21T16:46:50.987Z,7.87
2018-08-21T16:49:20.052Z,8.50
2018-08-21T16:51:49.090Z,7.57
2018-08-21T16:56:53.918Z,8.20
2018-08-21T16:59:24.614Z,7.70
2018-08-21T17:01:59.825Z,7.95
2018-08-21T17:04:30.790Z,7.53
2018-08-21T17:07:04.336Z,8.63
2018-08-21T17:09:33.728Z,8.30
2018-08-21T17:12:02.782Z,8.20
2018-08-21T17:14:31.857Z,8.03
2018-08-21T17:17:00.924Z,8.32
2018-08-21T17:19:29.981Z,10.93
2018-08-21T17:21:59.037Z,10.90
2018-08-21T17:24:28.101Z,9.60
2018-08-21T17:29:33.034Z,9.10
2018-08-21T17:32:02.068Z,7.23
2018-08-21T17:34:31.111Z,8.60
2018-08-21T17:37:00.226Z,9.07
2018-08-21T17:39:29.474Z,8.17
2018-08-21T17:41:58.516Z,8.83
2018-08-21T17:44:27.573Z,13.53
2018-08-21T17:46:56.694Z,14.47
2018-08-21T17:49:25.689Z,17.50
2018-08-21T17:51:54.783Z,24.53
2018-08-21T17:54:23.873Z,16.33
2018-08-21T17:56:52.975Z,15.27
2018-08-21T17:59:22.231Z,28.90
2018-08-21T18:04:27.074Z,24.42
2018-08-21T18:09:31.902Z,24.10
2018-08-21T18:12:00.980Z,25.50
2018-08-21T18:14:31.016Z,24.23
2018-08-21T18:17:00.096Z,22.10
2018-08-21T18:19:29.158Z,14.30
2018-08-21T18:21:58.219Z,11.20
2018-08-21T18:24:27.294Z,9.63
2018-08-21T18:29:33.362Z,9.43
2018-08-21T18:32:04.250Z,10.77
2018-08-21T18:34:33.298Z,10.93
2018-08-21T18:37:02.383Z,10.60
2018-08-21T18:39:35.401Z,9.50
2018-08-21T18:42:09.404Z,10.00
2018-08-21T18:44:42.606Z,8.93
2018-08-21T18:47:15.928Z,8.83
2018-08-21T18:49:49.625Z,13.53
2018-08-21T18:54:59.861Z,11.67
2018-08-21T18:57:32.857Z,10.80
2018-08-21T19:00:06.318Z,9.70
2018-08-21T19:02:38.466Z,10.90
2018-08-21T19:07:43.412Z,11.98
2018-08-21T19:12:44.937Z,11.65
2018-08-21T19:17:49.360Z,13.27
2018-08-21T19:20:18.445Z,12.03
2018-08-21T19:22:47.557Z,13.37
2018-08-21T19:25:17.680Z,12.90
2018-08-21T19:27:53.497Z,11.10
2018-08-21T19:30:31.761Z,10.33
2018-08-21T19:35:50.093Z,13.02
2018-08-21T19:38:22.716Z,12.33
2018-08-21T19:40:56.894Z,15.23
2018-08-21T19:43:29.261Z,13.67
2018-08-21T19:51:12.200Z,12.40
2018-08-21T19:53:43.871Z,14.93
2018-08-21T19:56:24.512Z,11.73
2018-08-21T19:58:59.036Z,14.53
2018-08-21T20:01:31.193Z,11.20
2018-08-21T20:04:00.395Z,10.93
2018-08-21T20:09:05.771Z,12.23
2018-08-21T20:11:34.819Z,14.70
2018-08-21T20:16:39.629Z,18.15
2018-08-21T20:19:08.735Z,13.03
2018-08-21T20:21:38.711Z,12.20
2018-08-21T20:24:07.770Z,36.03
2018-08-21T20:26:36.826Z,38.57
2018-08-21T20:31:42.012Z,17.48
2018-08-21T20:34:11.074Z,12.80
2018-08-21T20:36:40.209Z,11.30
2018-08-21T20:41:44.951Z,11.75
2018-08-21T20:44:14.025Z,11.82
2018-08-21T20:46:43.065Z,9.77
2018-08-21T20:49:12.126Z,13.80
2018-08-21T20:51:41.187Z,10.97
2018-08-21T20:54:10.231Z,10.63
2018-08-21T20:56:39.298Z,12.50
2018-08-21T20:59:08.391Z,10.63
2018-08-21T21:01:39.349Z,11.47
2018-08-21T21:04:08.410Z,12.70
2018-08-21T21:06:37.457Z,13.23
2018-08-21T21:09:06.519Z,12.07
2018-08-21T21:11:35.573Z,12.23
2018-08-21T21:14:22.645Z,12.37
2018-08-21T21:17:09.359Z,13.73
2018-08-21T21:19:56.320Z,11.47
2018-08-21T21:27:39.870Z,12.52
2018-08-21T21:30:08.944Z,11.93
2018-08-21T21:32:38.001Z,11.30
2018-08-21T21:35:07.070Z,13.57
2018-08-21T21:37:39.167Z,12.80
2018-08-21T21:40:08.272Z,11.67
2018-08-21T21:42:37.336Z,13.13
2018-08-21T21:45:06.400Z,12.57
2018-08-21T21:47:35.494Z,13.27
2018-08-21T21:52:41.792Z,12.10
2018-08-21T21:55:10.863Z,11.80
2018-08-21T21:57:39.906Z,11.70
2018-08-21T22:00:08.977Z,10.97
2018-08-21T22:02:38.045Z,11.33
2018-08-21T22:05:07.158Z,10.50
2018-08-21T22:07:36.208Z,13.40
2018-08-21T22:10:05.335Z,12.67
2018-08-21T22:12:34.381Z,11.80
2018-08-21T22:15:03.465Z,11.63
2018-08-21T22:20:10.284Z,13.07
2018-08-21T22:22:39.334Z,13.50
2018-08-21T22:25:08.385Z,13.20
2018-08-21T22:27:37.454Z,13.43
2018-08-21T22:30:06.513Z,12.13
2018-08-21T22:32:35.579Z,13.43
2018-08-21T22:35:04.630Z,11.83
2018-08-21T22:37:33.693Z,12.03
2018-08-21T22:42:38.549Z,11.95
2018-08-21T22:45:07.608Z,13.23
2018-08-21T22:47:36.694Z,12.17
2018-08-21T22:50:05.730Z,12.33
2018-08-21T22:52:34.883Z,12.70
2018-08-21T22:55:03.929Z,12.67
2018-08-21T23:00:08.786Z,12.85
2018-08-21T23:02:37.847Z,12.07
2018-08-21T23:10:19.486Z,12.80
2018-08-21T23:12:49.549Z,12.60
2018-08-21T23:15:19.567Z,12.37
2018-08-21T23:17:48.808Z,12.57
2018-08-21T23:20:17.879Z,11.77
2018-08-21T23:22:46.966Z,15.40
2018-08-21T23:25:16.025Z,11.50
2018-08-21T23:27:45.077Z,13.03
2018-08-21T23:30:14.173Z,12.23
2018-08-21T23:32:44.163Z,12.17
2018-08-21T23:35:13.226Z,13.88
2018-08-21T23:37:42.309Z,13.30
2018-08-21T23:40:11.368Z,13.30
2018-08-21T23:42:40.417Z,12.70
2018-08-21T23:45:09.466Z,11.77
2018-08-21T23:50:14.387Z,12.30
2018-08-21T23:52:43.503Z,13.20
2018-08-21T23:55:12.568Z,13.50
2018-08-21T23:57:41.625Z,13.20
